Time;durP1;ratioP1;P1;durP2;ratioP2;P2;SDS_P1;SDS_P2;PMS_P1;PMS_P2;Temp;Humidity;BMP_temperature;BMP_pressure;BME280_temperature;BME280_humidity;BME280_pressure;Samples;Min_cycle;Max_cycle;Signal;HPM_P1;HPM_P2
2023/06/02 00:00:40;;;;;;;4.05;0.80;;;;;;;10.38;66.68;100877.69;2061448;28;20874;-76
2023/06/02 00:01:43;;;;;;;5.30;1.02;;;;;;;10.32;66.23;100884.13;2062488;28;20038;-76
2023/06/02 00:02:46;;;;;;;2.80;0.82;;;;;;;10.30;66.67;100882.78;2065843;28;20101;-76
2023/06/02 00:03:53;;;;;;;6.88;1.55;;;;;;;10.32;66.75;100877.97;2073447;28;20034;-76
2023/06/02 00:04:57;;;;;;;4.85;0.80;;;;;;;10.31;66.87;100884.38;2073935;28;20030;-76
2023/06/02 00:06:03;;;;;;;4.05;0.93;;;;;;;10.31;66.86;100874.47;2064031;28;20031;-76
2023/06/02 00:07:09;;;;;;;2.95;0.70;;;;;;;10.39;66.54;100887.34;2073557;28;20141;-77
2023/06/02 00:08:11;;;;;;;4.35;0.98;;;;;;;10.41;66.82;100877.16;2066522;28;20031;-76
2023/06/02 00:09:14;;;;;;;5.80;0.85;;;;;;;10.36;66.57;100879.81;2049852;28;20146;-76
2023/06/02 00:10:16;;;;;;;5.90;0.93;;;;;;;10.38;66.39;100871.50;2063468;28;20108;-78
2023/06/02 00:11:19;;;;;;;4.75;0.77;;;;;;;10.41;66.28;100877.16;2060917;28;20032;-77
2023/06/02 00:12:21;;;;;;;2.58;1.25;;;;;;;10.37;66.19;100877.94;2074619;28;21163;-76
2023/06/02 00:13:23;;;;;;;3.25;0.80;;;;;;;10.33;66.60;100885.72;2073761;28;20132;-75
2023/06/02 00:14:25;;;;;;;3.72;0.82;;;;;;;10.35;66.29;100883.59;2056523;28;20052;-76
2023/06/02 00:15:29;;;;;;;4.03;0.80;;;;;;;10.35;66.60;100880.91;2062319;28;20063;-76
2023/06/02 00:16:34;;;;;;;4.43;0.70;;;;;;;10.36;66.69;100869.06;2081434;28;20064;-76
2023/06/02 00:17:39;;;;;;;3.88;0.75;;;;;;;10.38;67.20;100883.06;2065650;28;20225;-76
2023/06/02 00:18:43;;;;;;;5.57;1.15;;;;;;;10.35;67.08;100888.16;2054318;28;20136;-76
2023/06/02 00:19:45;;;;;;;3.03;1.00;;;;;;;10.33;66.87;100863.44;2074407;28;20225;-76
2023/06/02 00:20:46;;;;;;;2.65;0.80;;;;;;;10.25;67.30;100878.19;2073886;28;20069;-76
2023/06/02 00:21:48;;;;;;;3.33;0.95;;;;;;;10.29;67.39;100884.66;2061593;28;20040;-76
2023/06/02 00:22:51;;;;;;;2.53;0.95;;;;;;;10.35;67.39;100880.09;2057999;28;20034;-76
2023/06/02 00:23:53;;;;;;;3.13;0.80;;;;;;;10.36;67.70;100866.38;2074286;28;20034;-76
2023/06/02 00:24:55;;;;;;;5.35;1.10;;;;;;;10.28;67.77;100877.69;2079234;28;20148;-76
2023/06/02 00:26:03;;;;;;;4.35;0.98;;;;;;;10.29;68.32;100879.28;2080054;28;20036;-76
2023/06/02 00:27:04;;;;;;;3.50;0.70;;;;;;;10.21;68.28;100880.63;2065541;28;20130;-76
2023/06/02 00:28:05;;;;;;;3.75;0.98;;;;;;;10.23;69.05;100885.69;2061992;28;20043;-76
2023/06/02 00:29:07;;;;;;;2.17;0.88;;;;;;;10.21;68.89;100877.94;2077577;28;20030;-76
2023/06/02 00:30:11;;;;;;;2.33;0.70;;;;;;;10.14;69.49;100881.94;2073987;28;20838;-76
2023/06/02 00:31:15;;;;;;;2.30;0.70;;;;;;;10.10;69.53;100878.97;2081865;28;20034;-76
2023/06/02 00:32:18;;;;;;;3.22;1.15;;;;;;;10.10;69.13;100881.66;2082306;28;20777;-76
2023/06/02 00:33:20;;;;;;;2.80;0.80;;;;;;;10.12;69.56;100884.91;2066048;28;20038;-76
2023/06/02 00:34:21;;;;;;;2.72;0.88;;;;;;;10.14;69.68;100880.03;2057780;28;20142;-76
2023/06/02 00:35:23;;;;;;;3.63;0.80;;;;;;;10.14;69.58;100888.09;2073964;28;20085;-77
2023/06/02 00:36:24;;;;;;;3.45;0.80;;;;;;;10.05;70.15;100878.16;2073831;28;20038;-76
2023/06/02 00:37:26;;;;;;;4.07;0.80;;;;;;;10.06;70.42;100874.41;2057894;28;20044;-77
2023/06/02 00:38:29;;;;;;;4.28;0.90;;;;;;;10.09;70.71;100873.88;2073423;28;20935;-76
2023/06/02 00:39:32;;;;;;;6.07;1.00;;;;;;;10.15;70.76;100872.78;2081468;28;20034;-77
2023/06/02 00:40:35;;;;;;;6.05;1.08;;;;;;;10.20;70.60;100865.53;2073978;28;20026;-77
2023/06/02 00:41:40;;;;;;;2.78;0.70;;;;;;;10.29;71.06;100852.41;2063531;28;20149;-77
2023/06/02 00:42:41;;;;;;;4.00;1.00;;;;;;;10.28;70.47;100861.56;2074114;28;20769;-77
2023/06/02 00:43:45;;;;;;;4.07;0.65;;;;;;;10.23;70.07;100858.84;2080170;28;20096;-77
2023/06/02 00:44:47;;;;;;;2.17;0.70;;;;;;;10.22;70.63;100851.84;2073984;28;20165;-77
2023/06/02 00:45:49;;;;;;;5.50;0.90;;;;;;;10.17;70.34;100849.97;2065805;28;20038;-77
2023/06/02 00:46:51;;;;;;;3.85;1.10;;;;;;;10.18;70.59;100845.38;2066098;28;20042;-77
2023/06/02 00:47:53;;;;;;;3.33;1.10;;;;;;;10.20;70.98;100848.63;2082156;28;20852;-79
2023/06/02 00:48:55;;;;;;;6.15;0.82;;;;;;;10.21;70.71;100845.69;2073644;28;20049;-79
2023/06/02 00:49:57;;;;;;;5.00;0.90;;;;;;;10.23;71.12;100860.72;2054685;28;20035;-76
2023/06/02 00:50:59;;;;;;;5.22;0.77;;;;;;;10.13;71.69;100859.63;2068668;28;20039;-76
2023/06/02 00:52:01;;;;;;;4.40;0.85;;;;;;;10.12;71.32;100870.63;2070407;28;20030;-76
2023/06/02 00:53:04;;;;;;;3.30;0.75;;;;;;;10.06;71.74;100863.69;2072101;28;20038;-76
2023/06/02 00:54:09;;;;;;;7.05;1.20;;;;;;;10.05;72.14;100862.84;2069977;28;20037;-76
2023/06/02 00:55:10;;;;;;;4.18;0.80;;;;;;;10.09;72.14;100873.88;2064862;28;20038;-76
2023/06/02 00:56:15;;;;;;;5.22;0.80;;;;;;;10.08;72.45;100866.88;2065424;28;20038;-76
2023/06/02 00:57:17;;;;;;;2.33;1.00;;;;;;;10.13;72.12;100864.22;2057443;28;20035;-76
2023/06/02 00:58:19;;;;;;;5.13;0.98;;;;;;;10.19;72.42;100857.75;2049869;28;20063;-76
2023/06/02 00:59:22;;;;;;;5.10;1.02;;;;;;;10.15;72.27;100860.19;2049313;28;20805;-76
2023/06/02 01:00:24;;;;;;;5.47;0.90;;;;;;;10.19;72.08;100852.38;2050332;28;20950;-76
2023/06/02 01:01:25;;;;;;;5.25;0.90;;;;;;;10.12;71.86;100855.34;2057404;28;20043;-76
2023/06/02 01:02:27;;;;;;;5.20;1.70;;;;;;;10.04;71.75;100861.25;2065646;28;20077;-76
2023/06/02 01:03:31;;;;;;;11.18;1.33;;;;;;;10.01;71.84;100852.91;2073599;28;20035;-76
2023/06/02 01:04:32;;;;;;;2.45;0.75;;;;;;;10.03;71.68;100853.47;2081765;28;20168;-76
2023/06/02 01:05:36;;;;;;;8.02;0.95;;;;;;;10.01;71.35;100845.66;2073169;28;20038;-76
2023/06/02 01:06:37;;;;;;;3.45;0.63;;;;;;;9.96;71.52;100856.38;2065890;28;20035;-76
2023/06/02 01:07:44;;;;;;;3.58;0.95;;;;;;;9.95;71.33;100846.72;2081591;28;20040;-76
2023/06/02 01:08:46;;;;;;;6.47;1.15;;;;;;;9.91;71.68;100846.44;2073662;28;20057;-76
2023/06/02 01:09:50;;;;;;;4.10;0.90;;;;;;;9.94;71.34;100851.28;2065659;28;20045;-76
2023/06/02 01:10:52;;;;;;;5.13;1.13;;;;;;;10.00;71.64;100840.56;2065467;28;20054;-76
2023/06/02 01:11:53;;;;;;;3.97;0.93;;;;;;;10.01;71.23;100836.78;2074019;28;20137;-76
2023/06/02 01:12:55;;;;;;;3.13;0.90;;;;;;;9.92;71.39;100834.63;2073414;28;20038;-76
2023/06/02 01:13:58;;;;;;;4.15;0.90;;;;;;;10.01;71.57;100844.84;2062678;28;20154;-76
2023/06/02 01:15:00;;;;;;;6.50;1.10;;;;;;;10.08;71.35;100840.00;2065113;28;20027;-76
2023/06/02 01:16:02;;;;;;;3.70;0.90;;;;;;;10.15;71.20;100838.69;2072046;28;20030;-76
2023/06/02 01:17:04;;;;;;;7.28;1.30;;;;;;;10.09;71.25;100842.44;2073450;28;20149;-76
2023/06/02 01:18:08;;;;;;;5.13;0.80;;;;;;;10.10;71.18;100843.25;2069034;28;20133;-76
2023/06/02 01:19:14;;;;;;;5.05;0.80;;;;;;;10.12;71.17;100830.34;2074122;28;20169;-78
2023/06/02 01:20:36;;;;;;;6.25;0.88;;;;;;;10.09;70.71;100845.13;2089444;28;20033;-77
2023/06/02 01:21:39;;;;;;;2.83;0.77;;;;;;;10.08;71.05;100845.38;2095855;28;20079;-76
2023/06/02 01:23:01;;;;;;;2.28;0.80;;;;;;;10.10;71.20;100856.69;2077491;28;20852;-77
2023/06/02 01:24:03;;;;;;;4.22;0.85;;;;;;;10.10;70.83;100862.06;2079260;28;20128;-76
2023/06/02 01:25:23;;;;;;;2.63;0.60;;;;;;;10.10;71.07;100873.59;2090097;28;20022;-76
2023/06/02 01:26:25;;;;;;;7.07;1.10;;;;;;;10.11;70.70;100866.34;2071666;28;20060;-76
2023/06/02 01:27:26;;;;;;;4.43;0.88;;;;;;;10.05;70.82;100862.84;2057292;28;20157;-76
2023/06/02 01:28:28;;;;;;;4.13;0.85;;;;;;;10.06;70.18;100869.06;2065501;28;20030;-76
2023/06/02 01:29:36;;;;;;;3.72;1.17;;;;;;;10.05;70.59;100873.59;2090543;28;20037;-77
2023/06/02 01:30:41;;;;;;;5.30;1.10;;;;;;;10.05;70.33;100862.03;2083893;28;20859;-76
2023/06/02 01:31:49;;;;;;;1.35;0.45;;;;;;;10.08;70.03;100861.50;2074184;28;20038;-76
2023/06/02 01:32:58;;;;;;;5.35;1.20;;;;;;;10.13;70.24;100866.91;2073551;28;20034;-77
2023/06/02 01:34:14;;;;;;;;;;;;;;;10.14;69.71;100868.50;2071809;28;20057;-76
2023/06/02 01:35:18;;;;;;;7.25;0.63;;;;;;;10.14;69.69;100860.44;2076165;28;20076;-77
2023/06/02 01:36:22;;;;;;;4.65;1.13;;;;;;;10.15;69.40;100867.41;2070653;28;20035;-77
2023/06/02 01:37:25;;;;;;;2.90;0.88;;;;;;;10.20;69.58;100875.50;2081617;28;20033;-75
2023/06/02 01:38:29;;;;;;;2.65;0.95;;;;;;;10.23;69.18;100869.59;2081495;28;20030;-76
2023/06/02 01:39:32;;;;;;;1.77;0.50;;;;;;;10.22;68.61;100881.41;2065727;28;20892;-76
2023/06/02 01:40:34;;;;;;;5.25;0.80;;;;;;;10.12;68.87;100878.69;2049169;28;20042;-76
2023/06/02 01:41:40;;;;;;;7.82;1.30;;;;;;;10.10;68.92;100881.66;2071158;28;20149;-76
2023/06/02 01:42:43;;;;;;;5.90;0.80;;;;;;;10.07;69.19;100876.03;2077528;28;20150;-76
2023/06/02 01:43:47;;;;;;;1.88;0.63;;;;;;;10.11;69.24;100867.16;2085543;28;20089;-78
2023/06/02 01:44:51;;;;;;;4.82;0.88;;;;;;;10.06;69.48;100885.16;2086195;28;20152;-78
2023/06/02 01:45:59;;;;;;;3.78;1.20;;;;;;;10.05;69.65;100878.16;2073160;28;20072;-80
2023/06/02 01:47:02;;;;;;;6.05;1.08;;;;;;;10.06;69.84;100880.59;2066253;28;20034;-80
2023/06/02 01:48:07;;;;;;;5.28;0.88;;;;;;;10.04;69.89;100887.31;2065664;28;20162;-80
2023/06/02 01:49:17;;;;;;;4.32;0.77;;;;;;;10.13;69.79;100880.34;2075041;28;20034;-80
2023/06/02 01:50:21;;;;;;;4.25;0.80;;;;;;;10.10;69.86;100876.28;2078880;28;20030;-80
2023/06/02 01:51:23;;;;;;;3.20;0.68;;;;;;;10.12;69.55;100884.06;2065447;28;20043;-79
2023/06/02 01:52:24;;;;;;;3.60;0.80;;;;;;;10.09;69.56;100885.44;2073942;28;20073;-79
2023/06/02 01:53:26;;;;;;;3.97;0.80;;;;;;;10.10;69.66;100886.25;2073277;28;20045;-77
2023/06/02 01:54:30;;;;;;;10.55;1.23;;;;;;;10.14;69.70;100881.94;2057684;28;20708;-79
2023/06/02 01:55:31;;;;;;;4.22;0.98;;;;;;;10.04;69.77;100881.94;2057866;28;20854;-78
2023/06/02 01:56:35;;;;;;;5.65;1.38;;;;;;;9.85;69.67;100885.13;2065693;28;20035;-80
2023/06/02 01:57:38;;;;;;;6.45;1.00;;;;;;;9.84;70.50;100880.81;2073816;28;20038;-80
2023/06/02 01:58:43;;;;;;;3.45;0.93;;;;;;;9.83;70.22;100887.25;2076294;28;20108;-81
2023/06/02 01:59:47;;;;;;;2.38;0.77;;;;;;;9.91;70.73;100891.31;2066767;28;20149;-81
2023/06/02 02:00:54;;;;;;;3.55;0.80;;;;;;;9.94;70.67;100894.28;2073396;28;20037;-81
2023/06/02 02:01:55;;;;;;;3.90;0.80;;;;;;;9.91;70.34;100902.84;2081598;28;20153;-76
2023/06/02 02:02:57;;;;;;;7.10;1.00;;;;;;;9.86;70.30;100902.84;2079699;28;20136;-77
2023/06/02 02:03:59;;;;;;;3.63;0.60;;;;;;;9.85;70.90;100900.44;2081503;28;20064;-79
2023/06/02 02:05:04;;;;;;;2.70;0.70;;;;;;;9.75;70.86;100898.53;2081224;28;20048;-78
2023/06/02 02:06:06;;;;;;;2.72;0.63;;;;;;;9.83;71.32;100899.88;2081261;28;20734;-76
2023/06/02 02:07:11;;;;;;;1.58;0.60;;;;;;;9.81;70.77;100902.84;2081528;28;20139;-77
2023/06/02 02:08:16;;;;;;;5.90;1.00;;;;;;;9.78;70.09;100914.09;2078269;28;20123;-77
2023/06/02 02:09:19;;;;;;;6.18;0.80;;;;;;;9.78;70.07;100906.06;2074275;28;20034;-77
2023/06/02 02:10:23;;;;;;;3.95;0.70;;;;;;;9.68;69.74;100906.03;2073275;28;20142;-76
2023/06/02 02:11:23;;;;;;;6.07;1.08;;;;;;;9.69;70.33;100896.91;2069715;28;20165;-76
2023/06/02 02:12:25;;;;;;;3.83;0.93;;;;;;;9.73;70.29;100908.72;2071269;28;20565;-78
2023/06/02 02:13:27;;;;;;;4.43;0.82;;;;;;;9.74;69.81;100907.63;2072154;28;20863;-78
2023/06/02 02:14:30;;;;;;;3.80;0.90;;;;;;;9.74;69.32;100905.78;2064972;28;20874;-76
2023/06/02 02:15:35;;;;;;;3.80;0.95;;;;;;;9.77;69.60;100917.84;2069281;28;20704;-76
2023/06/02 02:16:36;;;;;;;3.35;1.30;;;;;;;9.85;69.34;100901.22;2081544;28;20224;-76
2023/06/02 02:17:44;;;;;;;7.95;0.90;;;;;;;9.94;69.30;100915.75;2073185;28;20103;-76
2023/06/02 02:18:46;;;;;;;4.15;0.60;;;;;;;10.02;69.13;100913.63;2058684;28;20086;-77
2023/06/02 02:19:50;;;;;;;3.42;0.80;;;;;;;10.03;68.68;100912.56;2057291;28;20094;-78
2023/06/02 02:20:54;;;;;;;9.13;1.08;;;;;;;10.03;68.22;100915.25;2066268;28;20034;-77
2023/06/02 02:21:56;;;;;;;3.53;0.70;;;;;;;10.00;68.04;100937.28;2070913;28;20100;-78
2023/06/02 02:23:00;;;;;;;1.77;0.80;;;;;;;9.97;68.52;100920.59;2073342;28;20030;-76
2023/06/02 02:24:04;;;;;;;2.97;0.88;;;;;;;10.01;68.08;100923.56;2081655;28;21247;-78
2023/06/02 02:25:07;;;;;;;3.17;0.80;;;;;;;10.04;67.98;100914.16;2072981;28;20845;-77
2023/06/02 02:26:13;;;;;;;2.65;0.68;;;;;;;9.96;68.02;100924.38;2058437;28;20039;-78
2023/06/02 02:27:15;;;;;;;3.08;0.80;;;;;;;9.92;67.67;100912.53;2065605;28;20047;-78
2023/06/02 02:28:18;;;;;;;4.05;1.05;;;;;;;9.92;67.50;100914.41;2070911;28;20038;-77
2023/06/02 02:29:23;;;;;;;4.55;0.90;;;;;;;9.93;67.60;100916.00;2073127;28;20817;-78
2023/06/02 02:30:26;;;;;;;2.17;0.82;;;;;;;9.92;67.67;100907.16;2063984;28;20150;-77
2023/06/02 02:31:28;;;;;;;1.33;0.70;;;;;;;9.99;67.66;100917.63;2065533;28;20034;-77
2023/06/02 02:32:30;;;;;;;1.55;0.70;;;;;;;10.08;67.52;100931.38;2057114;28;20027;-77
2023/06/02 02:33:32;;;;;;;2.75;0.80;;;;;;;10.09;67.53;100922.25;2065416;28;20798;-77
2023/06/02 02:34:38;;;;;;;2.47;0.70;;;;;;;10.09;66.90;100916.88;2070560;28;20045;-75
2023/06/02 02:35:47;;;;;;;;;;;;;;;10.09;66.93;100919.56;2065379;28;20089;-76
2023/06/02 02:36:55;;;;;;;2.47;0.80;;;;;;;9.97;67.05;100923.28;2080664;28;20066;-77
2023/06/02 02:37:57;;;;;;;1.50;0.70;;;;;;;9.93;66.74;100932.13;2078735;28;20065;-77
2023/06/02 02:39:03;;;;;;;4.90;0.85;;;;;;;10.01;66.57;100926.25;2065776;28;20035;-78
2023/06/02 02:40:08;;;;;;;1.52;0.70;;;;;;;10.10;66.94;100943.47;2066174;28;20035;-77
2023/06/02 02:41:10;;;;;;;4.18;0.80;;;;;;;10.20;66.87;100937.28;2073564;28;20035;-78
2023/06/02 02:42:13;;;;;;;2.88;0.77;;;;;;;10.19;66.71;100933.81;2081526;28;20861;-78
2023/06/02 02:43:17;;;;;;;3.28;0.70;;;;;;;10.19;66.38;100927.63;2073280;28;20840;-77
2023/06/02 02:44:19;;;;;;;4.80;0.85;;;;;;;10.18;66.37;100931.38;2079087;28;20868;-78
2023/06/02 02:45:23;;;;;;;2.80;0.80;;;;;;;10.13;65.59;100934.88;2063208;28;20047;-78
2023/06/02 02:46:25;;;;;;;4.20;0.60;;;;;;;10.04;65.70;100919.53;2066198;28;20046;-78
2023/06/02 02:47:28;;;;;;;3.63;0.70;;;;;;;9.91;65.42;100932.41;2057219;28;20142;-78
2023/06/02 02:48:29;;;;;;;5.40;1.52;;;;;;;9.89;66.08;100933.72;2057004;28;20094;-78
2023/06/02 02:49:33;;;;;;;11.32;3.97;;;;;;;9.90;65.98;100930.78;2066340;28;20042;-77
2023/06/02 02:50:39;;;;;;;4.05;1.00;;;;;;;9.92;66.24;100930.53;2070446;28;20069;-78
2023/06/02 02:51:41;;;;;;;4.60;1.20;;;;;;;9.93;66.00;100946.38;2066338;28;20890;-78
2023/06/02 02:52:44;;;;;;;4.20;0.80;;;;;;;9.86;65.60;100945.81;2057338;28;20047;-78
2023/06/02 02:53:47;;;;;;;4.57;0.70;;;;;;;9.79;65.53;100939.88;2050191;28;20808;-78
2023/06/02 02:54:49;;;;;;;2.55;0.70;;;;;;;9.81;65.60;100945.81;2073479;28;20927;-77
2023/06/02 02:55:53;;;;;;;3.38;0.70;;;;;;;9.76;65.81;100951.16;2081650;28;20038;-77
2023/06/02 02:56:58;;;;;;;3.17;0.80;;;;;;;9.71;65.68;100948.47;2065887;28;20154;-77
2023/06/02 02:58:01;;;;;;;2.75;0.95;;;;;;;9.77;65.83;100946.59;2065855;28;20880;-78
2023/06/02 02:59:02;;;;;;;3.67;0.73;;;;;;;9.81;65.68;100928.91;2072877;28;20035;-77
2023/06/02 03:00:09;;;;;;;3.03;1.35;;;;;;;9.77;65.66;100958.13;2057012;28;20042;-76
2023/06/02 03:01:15;;;;;;;4.43;0.93;;;;;;;9.72;65.79;100939.31;2068462;28;20042;-77
2023/06/02 03:02:17;;;;;;;3.25;0.77;;;;;;;9.74;65.60;100937.16;2053693;28;20883;-80
2023/06/02 03:03:18;;;;;;;2.60;0.52;;;;;;;9.79;65.60;100934.50;2057112;28;20047;-79
2023/06/02 03:04:21;;;;;;;4.55;0.82;;;;;;;9.83;65.29;100935.59;2064880;28;20423;-79
2023/06/02 03:05:25;;;;;;;2.90;0.70;;;;;;;9.78;65.25;100927.53;2089364;28;20888;-79
2023/06/02 03:06:31;;;;;;;4.13;0.80;;;;;;;9.80;65.22;100929.94;2078142;28;20128;-79
2023/06/02 03:07:34;;;;;;;2.45;0.80;;;;;;;9.79;64.88;100934.50;2063909;28;20043;-80
2023/06/02 03:08:36;;;;;;;1.33;0.40;;;;;;;9.79;64.80;100939.88;2061937;28;20062;-80
2023/06/02 03:09:38;;;;;;;2.17;0.75;;;;;;;9.70;64.03;100931.53;2079113;28;20193;-79
2023/06/02 03:10:43;;;;;;;2.05;0.52;;;;;;;9.65;63.85;100933.41;2076064;28;20034;-80
2023/06/02 03:11:48;;;;;;;2.97;0.70;;;;;;;9.62;64.48;100941.97;2074052;28;20033;-78
2023/06/02 03:12:50;;;;;;;2.10;0.80;;;;;;;9.70;64.51;100941.47;2080854;28;20137;-79
2023/06/02 03:13:52;;;;;;;2.67;0.60;;;;;;;9.79;64.35;100939.88;2072757;28;20038;-79
2023/06/02 03:14:54;;;;;;;1.13;0.68;;;;;;;9.79;63.62;100939.88;2057034;28;20162;-79
2023/06/02 03:16:00;;;;;;;4.50;0.73;;;;;;;9.72;64.11;100936.66;2063280;28;20043;-79
2023/06/02 03:17:05;;;;;;;3.13;0.65;;;;;;;9.70;63.92;100947.63;2077505;28;20793;-78
2023/06/02 03:18:08;;;;;;;2.78;0.60;;;;;;;9.62;64.04;100937.41;2080287;28;20033;-78
2023/06/02 03:19:13;;;;;;;1.50;0.60;;;;;;;9.63;64.10;100946.28;2073126;28;20854;-77
2023/06/02 03:20:17;;;;;;;2.25;0.60;;;;;;;9.53;64.58;100936.31;2073683;28;20779;-78
2023/06/02 03:21:23;;;;;;;2.33;0.45;;;;;;;9.48;64.60;100941.63;2071196;28;20030;-78
2023/06/02 03:22:28;;;;;;;3.13;0.80;;;;;;;9.51;65.08;100944.59;2064409;28;20106;-78
2023/06/02 03:23:30;;;;;;;1.63;0.57;;;;;;;9.57;65.11;100937.38;2058291;28;20822;-78
2023/06/02 03:24:32;;;;;;;3.75;1.30;;;;;;;9.58;64.56;100938.19;2075999;28;20876;-78
2023/06/02 03:25:36;;;;;;;2.25;0.70;;;;;;;9.65;64.48;100952.19;2057509;28;20735;-79
2023/06/02 03:26:40;;;;;;;4.47;0.70;;;;;;;9.68;64.30;100933.69;2065488;28;20034;-79
2023/06/02 03:27:46;;;;;;;2.45;0.70;;;;;;;9.69;64.40;100950.59;2073687;28;20088;-80
2023/06/02 03:28:50;;;;;;;2.53;0.88;;;;;;;9.73;64.54;100949.00;2081352;28;20123;-79
2023/06/02 03:29:51;;;;;;;1.90;0.80;;;;;;;9.76;63.57;100948.47;2072504;28;20057;-78
2023/06/02 03:30:57;;;;;;;2.33;0.80;;;;;;;9.74;63.24;100951.44;2066313;28;20077;-79
2023/06/02 03:32:08;;;;;;;1.95;0.60;;;;;;;9.78;63.24;100954.38;2056780;28;20247;-79
2023/06/02 03:33:09;;;;;;;1.23;0.55;;;;;;;9.85;63.31;100954.94;2060947;28;20105;-79
2023/06/02 03:34:11;;;;;;;3.20;0.82;;;;;;;9.87;62.98;100957.38;2065364;28;20035;-79
2023/06/02 03:35:13;;;;;;;2.83;0.50;;;;;;;9.93;62.76;100962.50;2057146;28;20400;-77
2023/06/02 03:36:19;;;;;;;2.78;0.65;;;;;;;10.10;63.07;100966.84;2065268;28;20031;-77
2023/06/02 03:37:21;;;;;;;3.17;0.70;;;;;;;10.17;62.48;100959.31;2073383;28;20102;-77
2023/06/02 03:38:23;;;;;;;3.83;0.90;;;;;;;10.21;62.69;100957.72;2073038;28;20121;-77
2023/06/02 03:39:28;;;;;;;2.25;0.52;;;;;;;10.26;62.34;100963.13;2074442;28;20034;-77
2023/06/02 03:40:30;;;;;;;4.00;0.75;;;;;;;10.21;62.14;100963.09;2082454;28;20869;-78
2023/06/02 03:41:35;;;;;;;3.03;0.70;;;;;;;10.25;62.34;100963.38;2074905;28;20112;-77
2023/06/02 03:42:38;;;;;;;2.97;0.68;;;;;;;10.15;62.52;100972.19;2080508;28;20924;-77
2023/06/02 03:43:42;;;;;;;4.03;0.70;;;;;;;10.21;62.95;100968.47;2074416;28;20049;-77
2023/06/02 03:44:45;;;;;;;2.13;0.70;;;;;;;10.30;62.80;100977.66;2057541;28;20035;-78
2023/06/02 03:45:47;;;;;;;2.95;0.70;;;;;;;10.30;62.62;100964.22;2074453;28;20057;-77
2023/06/02 03:46:50;;;;;;;4.90;0.70;;;;;;;10.33;62.54;100961.00;2066874;28;20042;-77
2023/06/02 03:47:53;;;;;;;1.92;0.65;;;;;;;10.38;62.37;100968.28;2066750;28;20034;-77
2023/06/02 03:48:57;;;;;;;3.33;0.70;;;;;;;10.40;62.24;100972.31;2067395;28;20035;-77
2023/06/02 03:50:00;;;;;;;2.25;0.60;;;;;;;10.26;62.12;100965.81;2073987;28;20030;-79
2023/06/02 03:51:04;;;;;;;1.55;0.40;;;;;;;10.33;62.12;100971.75;2072694;28;20743;-79
2023/06/02 03:52:07;;;;;;;3.33;0.60;;;;;;;10.46;61.97;100978.47;2067259;28;20038;-78
2023/06/02 03:53:10;;;;;;;2.05;0.60;;;;;;;10.50;61.77;100976.06;2082523;28;20030;-78
2023/06/02 03:54:13;;;;;;;3.17;0.60;;;;;;;10.47;61.42;100980.09;2073830;28;20074;-78
2023/06/02 03:55:16;;;;;;;1.50;0.60;;;;;;;10.30;61.22;100977.66;2050397;28;20059;-78
2023/06/02 03:56:20;;;;;;;1.88;0.63;;;;;;;10.37;61.08;100980.06;2067638;28;20043;-77
2023/06/02 03:57:23;;;;;;;2.55;0.60;;;;;;;10.52;61.49;100984.69;2075147;28;20868;-78
2023/06/02 03:58:25;;;;;;;3.28;0.70;;;;;;;10.49;61.24;100979.81;2074472;28;20750;-77
2023/06/02 03:59:27;;;;;;;2.10;0.90;;;;;;;10.50;61.12;100981.44;2073913;28;20035;-79
2023/06/02 04:00:30;;;;;;;3.75;0.65;;;;;;;10.55;61.06;100986.81;2081935;28;20833;-79
2023/06/02 04:01:32;;;;;;;4.32;0.80;;;;;;;10.60;60.94;100984.97;2058459;28;20896;-78
2023/06/02 04:02:35;;;;;;;1.80;0.52;;;;;;;10.68;60.56;100984.41;2057879;28;20191;-77
2023/06/02 04:03:37;;;;;;;2.80;0.70;;;;;;;10.77;60.61;100981.19;2071812;28;20046;-78
2023/06/02 04:04:42;;;;;;;4.50;0.75;;;;;;;10.79;60.39;100990.63;2074582;28;20042;-75
2023/06/02 04:05:44;;;;;;;3.42;0.50;;;;;;;10.84;60.58;100989.78;2066483;28;20052;-77
2023/06/02 04:06:46;;;;;;;5.78;0.77;;;;;;;10.76;60.74;100996.53;2066857;28;20106;-79
2023/06/02 04:07:50;;;;;;;2.78;0.45;;;;;;;10.60;60.78;100989.53;2066409;28;20094;-81
2023/06/02 04:08:52;;;;;;;1.58;0.52;;;;;;;10.52;60.84;100984.69;2058203;28;20039;-82
2023/06/02 04:09:57;;;;;;;2.30;0.50;;;;;;;10.41;61.01;100973.91;2064698;28;20097;-77
2023/06/02 04:11:00;;;;;;;4.70;0.90;;;;;;;10.49;60.94;100985.22;2066496;28;20999;-71
2023/06/02 04:12:02;;;;;;;2.83;0.47;;;;;;;10.53;60.57;101002.41;2065211;28;20039;-70
2023/06/02 04:13:11;;;;;;;2.58;0.50;;;;;;;10.63;59.66;100994.38;2057686;28;20039;-71
2023/06/02 04:14:17;;;;;;;2.08;0.55;;;;;;;10.82;59.48;101002.72;2065346;28;20876;-72
2023/06/02 04:15:24;;;;;;;2.83;0.85;;;;;;;11.00;59.65;101004.03;2072802;28;20046;-72
2023/06/02 04:16:28;;;;;;;4.68;0.88;;;;;;;11.11;59.04;101002.97;2065461;28;21029;-71
2023/06/02 04:17:30;;;;;;;3.53;0.80;;;;;;;11.21;58.20;101002.16;2056116;28;20740;-72
2023/06/02 04:18:38;;;;;;;4.55;1.17;;;;;;;11.19;58.13;100999.75;2066508;28;20834;-70
2023/06/02 04:19:44;;;;;;;1.15;0.50;;;;;;;11.40;57.81;100999.69;2096233;28;20033;-70
2023/06/02 04:20:46;;;;;;;3.58;0.68;;;;;;;11.43;56.79;100994.56;2091205;28;21324;-70
2023/06/02 04:21:48;;;;;;;2.72;0.70;;;;;;;11.52;57.52;101000.19;2083026;28;20038;-70
2023/06/02 04:22:54;;;;;;;3.05;0.60;;;;;;;11.67;57.02;101002.84;2076043;28;20046;-70
2023/06/02 04:23:55;;;;;;;3.75;0.85;;;;;;;11.85;56.47;101012.22;2057067;28;20039;-70
2023/06/02 04:24:57;;;;;;;2.25;0.50;;;;;;;11.93;55.35;101010.84;2057015;28;20775;-70
2023/06/02 04:26:00;;;;;;;1.10;0.40;;;;;;;11.97;54.97;101003.81;2064739;28;20045;-70
2023/06/02 04:27:02;;;;;;;5.40;0.60;;;;;;;11.88;54.96;101010.88;2064684;28;20039;-70
2023/06/02 04:28:05;;;;;;;1.67;0.63;;;;;;;11.88;55.37;101022.44;2056994;28;20039;-70
2023/06/02 04:29:07;;;;;;;3.20;0.65;;;;;;;11.76;54.70;101006.59;2056938;28;20059;-70
2023/06/02 04:30:10;;;;;;;1.40;0.43;;;;;;;11.75;54.77;101013.03;2055999;28;20145;-70
2023/06/02 04:31:14;;;;;;;5.38;0.50;;;;;;;11.91;54.77;101015.72;2073375;28;20037;-70
2023/06/02 04:32:21;;;;;;;1.83;0.50;;;;;;;12.02;54.67;101017.28;2062955;28;20977;-71
2023/06/02 04:33:23;;;;;;;4.50;0.60;;;;;;;12.01;54.04;101010.25;2077015;28;20038;-72
2023/06/02 04:34:27;;;;;;;2.22;0.60;;;;;;;12.11;53.92;101026.41;2076469;28;20034;-71
2023/06/02 04:35:29;;;;;;;3.70;0.85;;;;;;;12.32;54.01;101015.50;2072643;28;20169;-69
2023/06/02 04:36:31;;;;;;;3.00;0.70;;;;;;;12.49;53.88;101010.56;2072563;28;21191;-71
2023/06/02 04:37:34;;;;;;;1.17;0.52;;;;;;;12.59;52.90;101018.56;2080863;28;20108;-70
2023/06/02 04:38:39;;;;;;;1.83;0.45;;;;;;;12.50;51.39;101009.47;2063998;28;20034;-71
2023/06/02 04:39:46;;;;;;;3.45;0.60;;;;;;;12.42;51.82;101018.13;2048890;28;20075;-71
2023/06/02 04:40:50;;;;;;;1.52;0.50;;;;;;;12.44;51.47;101014.06;2066917;28;20042;-71
2023/06/02 04:41:57;;;;;;;1.33;0.50;;;;;;;12.52;51.55;101020.78;2075638;28;20038;-70
2023/06/02 04:42:59;;;;;;;5.00;0.50;;;;;;;12.63;51.22;101011.53;2072965;28;20056;-72
2023/06/02 04:44:05;;;;;;;4.82;0.60;;;;;;;12.61;50.97;101020.97;2081295;28;20932;-72
2023/06/02 04:45:11;;;;;;;1.92;0.57;;;;;;;12.64;50.99;101031.22;2071724;28;21332;-70
2023/06/02 04:46:13;;;;;;;2.78;0.70;;;;;;;12.26;50.88;101018.25;2065183;28;20081;-71
2023/06/02 04:47:16;;;;;;;3.20;0.55;;;;;;;12.38;51.78;101022.47;2071888;28;20854;-70
2023/06/02 04:48:18;;;;;;;2.90;0.70;;;;;;;12.44;51.60;101024.06;2071803;28;20041;-72
2023/06/02 04:49:23;;;;;;;3.05;0.80;;;;;;;12.62;52.10;101030.69;2072513;28;20034;-71
2023/06/02 04:50:27;;;;;;;3.47;0.60;;;;;;;12.78;51.38;101017.91;2064342;28;20201;-71
2023/06/02 04:51:30;;;;;;;0.93;0.50;;;;;;;12.84;50.38;101022.97;2072825;28;20136;-70
2023/06/02 04:52:32;;;;;;;1.30;0.73;;;;;;;12.85;49.95;101019.19;2080370;28;20030;-71
2023/06/02 04:53:34;;;;;;;3.25;0.52;;;;;;;12.85;49.47;101034.56;2064074;28;20847;-70
2023/06/02 04:54:36;;;;;;;3.13;0.50;;;;;;;12.97;49.36;101032.31;2048778;28;20031;-71
2023/06/02 04:55:38;;;;;;;2.58;0.52;;;;;;;12.94;48.63;101020.19;2056351;28;20102;-71
2023/06/02 04:56:40;;;;;;;3.75;0.70;;;;;;;13.02;48.68;101021.50;2064565;28;20045;-69